sensor_id;sensor_type;location;lat;lon;timestamp;temperature;humidity
851;DHT22;412;51.400;7.480;2023-05-10T00:02:10;16.80;99.90
851;DHT22;412;51.400;7.480;2023-05-10T00:04:35;16.80;99.90
851;DHT22;412;51.400;7.480;2023-05-10T00:07:01;16.80;99.90
851;DHT22;412;51.400;7.480;2023-05-10T00:09:27;16.80;99.90
851;DHT22;412;51.400;7.480;2023-05-10T00:11:53;16.80;99.90
851;DHT22;412;51.400;7.480;2023-05-10T00:14:18;16.70;99.90
851;DHT22;412;51.400;7.480;2023-05-10T00:16:44;16.70;99.90
851;DHT22;412;51.400;7.480;2023-05-10T00:19:10;16.70;99.90
851;DHT22;412;51.400;7.480;2023-05-10T00:21:36;16.70;99.90
851;DHT22;412;51.400;7.480;2023-05-10T00:24:02;16.70;99.90
851;DHT22;412;51.400;7.480;2023-05-10T00:26:28;16.70;99.90
851;DHT22;412;51.400;7.480;2023-05-10T00:28:53;16.70;99.90
851;DHT22;412;51.400;7.480;2023-05-10T00:31:19;16.70;99.90
851;DHT22;412;51.400;7.480;2023-05-10T00:33:45;16.70;99.90
851;DHT22;412;51.400;7.480;2023-05-10T00:36:11;16.70;99.90
851;DHT22;412;51.400;7.480;2023-05-10T00:38:37;16.70;99.90
851;DHT22;412;51.400;7.480;2023-05-10T00:41:03;16.60;99.90
851;DHT22;412;51.400;7.480;2023-05-10T00:43:29;16.60;99.90
851;DHT22;412;51.400;7.480;2023-05-10T00:45:55;16.60;99.90
851;DHT22;412;51.400;7.480;2023-05-10T00:48:22;16.60;99.90
851;DHT22;412;51.400;7.480;2023-05-10T00:50:47;16.60;99.90
851;DHT22;412;51.400;7.480;2023-05-10T00:53:14;16.70;99.90
851;DHT22;412;51.400;7.480;2023-05-10T00:55:40;16.60;99.90
851;DHT22;412;51.400;7.480;2023-05-10T00:58:06;16.60;99.90
851;DHT22;412;51.400;7.480;2023-05-10T01:00:33;16.60;99.90
851;DHT22;412;51.400;7.480;2023-05-10T01:02:58;16.60;99.90
851;DHT22;412;51.400;7.480;2023-05-10T01:05:26;16.60;99.90
851;DHT22;412;51.400;7.480;2023-05-10T01:07:53;16.60;99.90
851;DHT22;412;51.400;7.480;2023-05-10T01:10:19;16.60;99.90
851;DHT22;412;51.400;7.480;2023-05-10T01:12:46;16.60;99.90
851;DHT22;412;51.400;7.480;2023-05-10T01:15:12;16.60;99.90
851;DHT22;412;51.400;7.480;2023-05-10T01:17:41;16.60;99.90
851;DHT22;412;51.400;7.480;2023-05-10T01:20:09;16.60;99.90
851;DHT22;412;51.400;7.480;2023-05-10T01:28:34;16.50;99.90
851;DHT22;412;51.400;7.480;2023-05-10T01:31:07;16.50;99.90
851;DHT22;412;51.400;7.480;2023-05-10T01:33:59;16.50;99.90
851;DHT22;412;51.400;7.480;2023-05-10T01:36:31;16.50;99.90
851;DHT22;412;51.400;7.480;2023-05-10T01:39:02;16.50;99.90
851;DHT22;412;51.400;7.480;2023-05-10T01:44:17;16.50;99.90
851;DHT22;412;51.400;7.480;2023-05-10T01:46:48;16.50;99.90
851;DHT22;412;51.400;7.480;2023-05-10T01:49:25;16.50;99.90
851;DHT22;412;51.400;7.480;2023-05-10T01:51:53;16.50;99.90
851;DHT22;412;51.400;7.480;2023-05-10T01:54:23;16.50;99.90
851;DHT22;412;51.400;7.480;2023-05-10T01:56:55;16.50;99.90
851;DHT22;412;51.400;7.480;2023-05-10T01:59:23;16.50;99.90
851;DHT22;412;51.400;7.480;2023-05-10T02:01:53;16.50;99.90
851;DHT22;412;51.400;7.480;2023-05-10T02:04:21;16.50;99.90
851;DHT22;412;51.400;7.480;2023-05-10T02:06:49;16.50;99.90
851;DHT22;412;51.400;7.480;2023-05-10T02:09:16;16.50;99.90
851;DHT22;412;51.400;7.480;2023-05-10T02:11:43;16.50;99.90
851;DHT22;412;51.400;7.480;2023-05-10T02:14:11;16.50;99.90
851;DHT22;412;51.400;7.480;2023-05-10T02:16:38;16.50;99.90
851;DHT22;412;51.400;7.480;2023-05-10T02:19:05;16.40;99.90
851;DHT22;412;51.400;7.480;2023-05-10T02:21:32;16.40;99.90
851;DHT22;412;51.400;7.480;2023-05-10T02:23:59;16.50;99.90
851;DHT22;412;51.400;7.480;2023-05-10T02:26:26;16.50;99.90
851;DHT22;412;51.400;7.480;2023-05-10T02:28:53;16.50;99.90
851;DHT22;412;51.400;7.480;2023-05-10T02:31:20;16.40;99.90
851;DHT22;412;51.400;7.480;2023-05-10T02:33:48;16.50;99.90
851;DHT22;412;51.400;7.480;2023-05-10T02:36:15;16.40;99.90
851;DHT22;412;51.400;7.480;2023-05-10T02:38:42;16.50;99.90
851;DHT22;412;51.400;7.480;2023-05-10T02:41:10;16.50;99.90
851;DHT22;412;51.400;7.480;2023-05-10T02:43:37;16.40;99.90
851;DHT22;412;51.400;7.480;2023-05-10T02:46:05;16.40;99.90
851;DHT22;412;51.400;7.480;2023-05-10T02:48:30;16.40;99.90
851;DHT22;412;51.400;7.480;2023-05-10T02:51:01;16.40;99.90
851;DHT22;412;51.400;7.480;2023-05-10T02:53:31;16.40;99.90
851;DHT22;412;51.400;7.480;2023-05-10T02:56:05;16.40;99.90
851;DHT22;412;51.400;7.480;2023-05-10T02:58:34;16.40;99.90
851;DHT22;412;51.400;7.480;2023-05-10T03:01:01;16.30;99.90
851;DHT22;412;51.400;7.480;2023-05-10T03:03:26;16.30;99.90
851;DHT22;412;51.400;7.480;2023-05-10T03:05:52;16.30;99.90
851;DHT22;412;51.400;7.480;2023-05-10T03:08:22;16.30;99.90
851;DHT22;412;51.400;7.480;2023-05-10T03:16:27;16.30;99.90
851;DHT22;412;51.400;7.480;2023-05-10T03:19:01;16.20;99.90
851;DHT22;412;51.400;7.480;2023-05-10T03:21:29;16.20;99.90
851;DHT22;412;51.400;7.480;2023-05-10T03:24:08;16.20;99.90
851;DHT22;412;51.400;7.480;2023-05-10T03:26:37;16.20;99.90
851;DHT22;412;51.400;7.480;2023-05-10T03:29:05;16.20;99.90
851;DHT22;412;51.400;7.480;2023-05-10T03:31:32;16.20;99.90
851;DHT22;412;51.400;7.480;2023-05-10T03:33:57;16.20;99.90
851;DHT22;412;51.400;7.480;2023-05-10T03:36:23;16.20;99.90
851;DHT22;412;51.400;7.480;2023-05-10T03:38:49;16.20;99.90
851;DHT22;412;51.400;7.480;2023-05-10T03:41:15;16.20;99.90
851;DHT22;412;51.400;7.480;2023-05-10T03:43:40;16.20;99.90
851;DHT22;412;51.400;7.480;2023-05-10T03:46:07;16.20;99.90
851;DHT22;412;51.400;7.480;2023-05-10T03:48:33;16.20;99.90
851;DHT22;412;51.400;7.480;2023-05-10T03:50:58;16.20;99.90
851;DHT22;412;51.400;7.480;2023-05-10T03:53:24;16.20;99.90
851;DHT22;412;51.400;7.480;2023-05-10T03:55:50;16.20;99.90
851;DHT22;412;51.400;7.480;2023-05-10T03:58:16;16.20;99.90
851;DHT22;412;51.400;7.480;2023-05-10T04:00:42;16.20;99.90
851;DHT22;412;51.400;7.480;2023-05-10T04:03:11;16.20;99.90
851;DHT22;412;51.400;7.480;2023-05-10T04:05:37;16.20;99.90
851;DHT22;412;51.400;7.480;2023-05-10T04:08:03;16.20;99.90
851;DHT22;412;51.400;7.480;2023-05-10T04:10:29;16.20;99.90
851;DHT22;412;51.400;7.480;2023-05-10T04:12:55;16.20;99.90
851;DHT22;412;51.400;7.480;2023-05-10T04:15:21;16.20;99.90
851;DHT22;412;51.400;7.480;2023-05-10T04:17:47;16.20;99.90
851;DHT22;412;51.400;7.480;2023-05-10T04:20:12;16.20;99.90
851;DHT22;412;51.400;7.480;2023-05-10T04:22:38;16.20;99.90
851;DHT22;412;51.400;7.480;2023-05-10T04:25:05;16.20;99.90
851;DHT22;412;51.400;7.480;2023-05-10T04:27:31;16.20;99.90
851;DHT22;412;51.400;7.480;2023-05-10T04:29:57;16.20;99.90
851;DHT22;412;51.400;7.480;2023-05-10T04:32:23;16.20;99.90
851;DHT22;412;51.400;7.480;2023-05-10T04:34:49;16.20;99.90
851;DHT22;412;51.400;7.480;2023-05-10T04:37:16;16.20;99.90
851;DHT22;412;51.400;7.480;2023-05-10T04:39:42;16.30;99.90
851;DHT22;412;51.400;7.480;2023-05-10T04:42:08;16.20;99.90
851;DHT22;412;51.400;7.480;2023-05-10T04:44:34;16.30;99.90
851;DHT22;412;51.400;7.480;2023-05-10T04:47:00;16.20;99.90
851;DHT22;412;51.400;7.480;2023-05-10T04:49:28;16.20;99.90
851;DHT22;412;51.400;7.480;2023-05-10T04:51:54;16.30;99.90
851;DHT22;412;51.400;7.480;2023-05-10T04:54:20;16.30;99.90
851;DHT22;412;51.400;7.480;2023-05-10T04:56:45;16.30;99.90
851;DHT22;412;51.400;7.480;2023-05-10T04:59:11;16.30;99.90
851;DHT22;412;51.400;7.480;2023-05-10T05:01:37;16.30;99.90
851;DHT22;412;51.400;7.480;2023-05-10T05:04:03;16.30;99.90
851;DHT22;412;51.400;7.480;2023-05-10T05:06:29;16.30;99.90
851;DHT22;412;51.400;7.480;2023-05-10T05:08:54;16.20;99.90
851;DHT22;412;51.400;7.480;2023-05-10T05:11:20;16.30;99.90
851;DHT22;412;51.400;7.480;2023-05-10T05:13:46;16.20;99.90
851;DHT22;412;51.400;7.480;2023-05-10T05:16:12;16.30;99.90
851;DHT22;412;51.400;7.480;2023-05-10T05:18:38;16.20;99.90
851;DHT22;412;51.400;7.480;2023-05-10T05:21:14;16.20;99.90
851;DHT22;412;51.400;7.480;2023-05-10T05:23:40;16.20;99.90
851;DHT22;412;51.400;7.480;2023-05-10T05:26:06;16.20;99.90
851;DHT22;412;51.400;7.480;2023-05-10T05:28:32;16.30;99.90
851;DHT22;412;51.400;7.480;2023-05-10T05:31:00;16.40;99.90
851;DHT22;412;51.400;7.480;2023-05-10T05:33:26;16.50;99.90
851;DHT22;412;51.400;7.480;2023-05-10T05:35:52;16.60;99.90
851;DHT22;412;51.400;7.480;2023-05-10T05:38:19;16.70;99.90
851;DHT22;412;51.400;7.480;2023-05-10T05:40:45;16.80;99.90
851;DHT22;412;51.400;7.480;2023-05-10T05:43:10;16.90;99.90
851;DHT22;412;51.400;7.480;2023-05-10T05:45:36;17.00;99.90
851;DHT22;412;51.400;7.480;2023-05-10T05:48:02;17.10;99.90
851;DHT22;412;51.400;7.480;2023-05-10T05:50:28;17.20;99.90
851;DHT22;412;51.400;7.480;2023-05-10T05:52:54;17.20;99.90
851;DHT22;412;51.400;7.480;2023-05-10T05:55:19;17.30;99.90
851;DHT22;412;51.400;7.480;2023-05-10T05:57:45;17.40;99.90
851;DHT22;412;51.400;7.480;2023-05-10T06:00:11;17.50;99.90
851;DHT22;412;51.400;7.480;2023-05-10T06:02:37;17.50;99.90
851;DHT22;412;51.400;7.480;2023-05-10T06:05:03;17.50;99.90
851;DHT22;412;51.400;7.480;2023-05-10T06:07:29;17.50;99.90
851;DHT22;412;51.400;7.480;2023-05-10T06:09:54;17.60;99.90
851;DHT22;412;51.400;7.480;2023-05-10T06:12:20;17.60;99.90
851;DHT22;412;51.400;7.480;2023-05-10T06:14:46;17.60;99.90
851;DHT22;412;51.400;7.480;2023-05-10T06:17:12;17.60;99.90
851;DHT22;412;51.400;7.480;2023-05-10T06:19:37;17.70;99.90
851;DHT22;412;51.400;7.480;2023-05-10T06:22:03;17.70;99.90
851;DHT22;412;51.400;7.480;2023-05-10T06:24:29;17.80;99.90
851;DHT22;412;51.400;7.480;2023-05-10T06:26:55;17.80;99.90
851;DHT22;412;51.400;7.480;2023-05-10T06:29:21;17.70;99.90
851;DHT22;412;51.400;7.480;2023-05-10T06:31:46;17.60;99.90
851;DHT22;412;51.400;7.480;2023-05-10T06:34:13;17.60;99.90
851;DHT22;412;51.400;7.480;2023-05-10T06:36:39;17.50;99.90
851;DHT22;412;51.400;7.480;2023-05-10T06:39:05;17.40;99.90
851;DHT22;412;51.400;7.480;2023-05-10T06:41:31;17.30;99.90
851;DHT22;412;51.400;7.480;2023-05-10T06:43:56;17.20;99.90
851;DHT22;412;51.400;7.480;2023-05-10T06:46:22;17.20;99.90
851;DHT22;412;51.400;7.480;2023-05-10T06:48:48;17.10;99.90
851;DHT22;412;51.400;7.480;2023-05-10T06:51:13;17.00;99.90
851;DHT22;412;51.400;7.480;2023-05-10T06:53:39;17.00;99.90
851;DHT22;412;51.400;7.480;2023-05-10T06:56:05;17.00;99.90
851;DHT22;412;51.400;7.480;2023-05-10T06:58:31;17.10;99.90
851;DHT22;412;51.400;7.480;2023-05-10T07:01:04;17.10;99.90
851;DHT22;412;51.400;7.480;2023-05-10T07:03:31;17.10;99.90
851;DHT22;412;51.400;7.480;2023-05-10T07:06:03;17.10;99.90
851;DHT22;412;51.400;7.480;2023-05-10T07:08:31;17.10;99.90
851;DHT22;412;51.400;7.480;2023-05-10T07:11:04;17.20;99.90
851;DHT22;412;51.400;7.480;2023-05-10T07:13:31;17.30;99.90
851;DHT22;412;51.400;7.480;2023-05-10T07:15:58;17.40;99.90
851;DHT22;412;51.400;7.480;2023-05-10T07:18:24;17.40;99.90
851;DHT22;412;51.400;7.480;2023-05-10T07:20:50;17.40;99.90
851;DHT22;412;51.400;7.480;2023-05-10T07:23:16;17.30;99.90
851;DHT22;412;51.400;7.480;2023-05-10T07:25:48;17.40;99.90
851;DHT22;412;51.400;7.480;2023-05-10T07:28:15;17.40;99.90
851;DHT22;412;51.400;7.480;2023-05-10T07:30:42;17.40;99.90
851;DHT22;412;51.400;7.480;2023-05-10T07:33:09;17.40;99.90
851;DHT22;412;51.400;7.480;2023-05-10T07:35:35;17.40;99.90
851;DHT22;412;51.400;7.480;2023-05-10T07:38:02;17.40;99.90
851;DHT22;412;51.400;7.480;2023-05-10T07:40:28;17.40;99.90
851;DHT22;412;51.400;7.480;2023-05-10T07:42:54;17.50;99.90
851;DHT22;412;51.400;7.480;2023-05-10T07:45:20;17.60;99.90
851;DHT22;412;51.400;7.480;2023-05-10T07:47:46;17.70;99.90
851;DHT22;412;51.400;7.480;2023-05-10T07:50:11;17.80;99.90
851;DHT22;412;51.400;7.480;2023-05-10T07:53:00;17.90;99.90
851;DHT22;412;51.400;7.480;2023-05-10T07:55:25;17.90;99.90
851;DHT22;412;51.400;7.480;2023-05-10T07:57:51;17.90;99.90
851;DHT22;412;51.400;7.480;2023-05-10T08:00:18;17.90;99.90
851;DHT22;412;51.400;7.480;2023-05-10T08:02:44;17.80;99.90
851;DHT22;412;51.400;7.480;2023-05-10T08:05:10;17.80;99.90
851;DHT22;412;51.400;7.480;2023-05-10T08:07:36;17.80;99.90
851;DHT22;412;51.400;7.480;2023-05-10T08:10:02;17.80;99.90
851;DHT22;412;51.400;7.480;2023-05-10T08:12:28;17.80;99.90
851;DHT22;412;51.400;7.480;2023-05-10T08:14:54;17.70;99.90
851;DHT22;412;51.400;7.480;2023-05-10T08:17:20;17.80;99.90
851;DHT22;412;51.400;7.480;2023-05-10T08:19:45;17.80;99.90
851;DHT22;412;51.400;7.480;2023-05-10T08:22:11;17.80;99.90
851;DHT22;412;51.400;7.480;2023-05-10T08:24:37;17.80;99.90
851;DHT22;412;51.400;7.480;2023-05-10T08:27:05;17.80;99.90
851;DHT22;412;51.400;7.480;2023-05-10T08:29:31;17.80;99.90
851;DHT22;412;51.400;7.480;2023-05-10T08:31:56;17.70;99.90
851;DHT22;412;51.400;7.480;2023-05-10T08:34:22;17.60;99.90
851;DHT22;412;51.400;7.480;2023-05-10T08:36:48;17.60;99.90
851;DHT22;412;51.400;7.480;2023-05-10T08:39:14;17.60;99.90
851;DHT22;412;51.400;7.480;2023-05-10T08:41:44;17.60;99.90
851;DHT22;412;51.400;7.480;2023-05-10T08:44:10;17.70;99.90
851;DHT22;412;51.400;7.480;2023-05-10T08:46:37;17.80;99.90
851;DHT22;412;51.400;7.480;2023-05-10T08:49:13;17.90;99.90
851;DHT22;412;51.400;7.480;2023-05-10T08:51:47;18.00;99.90
851;DHT22;412;51.400;7.480;2023-05-10T08:54:15;18.10;99.90
851;DHT22;412;51.400;7.480;2023-05-10T08:56:41;18.20;99.90
851;DHT22;412;51.400;7.480;2023-05-10T08:59:07;18.40;99.90
851;DHT22;412;51.400;7.480;2023-05-10T09:01:35;18.60;99.90
851;DHT22;412;51.400;7.480;2023-05-10T09:04:02;18.70;99.90
851;DHT22;412;51.400;7.480;2023-05-10T09:06:29;18.90;99.90
851;DHT22;412;51.400;7.480;2023-05-10T09:08:55;19.10;99.90
851;DHT22;412;51.400;7.480;2023-05-10T09:11:21;19.20;99.90
851;DHT22;412;51.400;7.480;2023-05-10T09:13:48;19.40;99.90
851;DHT22;412;51.400;7.480;2023-05-10T09:16:16;19.70;99.90
851;DHT22;412;51.400;7.480;2023-05-10T09:18:42;19.90;99.90
851;DHT22;412;51.400;7.480;2023-05-10T09:21:08;20.00;99.90
851;DHT22;412;51.400;7.480;2023-05-10T09:23:35;20.00;99.90
851;DHT22;412;51.400;7.480;2023-05-10T09:26:07;20.00;99.90
851;DHT22;412;51.400;7.480;2023-05-10T09:28:33;19.90;99.90
851;DHT22;412;51.400;7.480;2023-05-10T09:30:59;19.80;99.90
851;DHT22;412;51.400;7.480;2023-05-10T09:33:25;19.60;99.90
851;DHT22;412;51.400;7.480;2023-05-10T09:35:52;19.50;99.90
851;DHT22;412;51.400;7.480;2023-05-10T09:38:17;19.20;99.90
851;DHT22;412;51.400;7.480;2023-05-10T09:40:53;19.10;99.90
851;DHT22;412;51.400;7.480;2023-05-10T09:43:20;19.10;99.90
851;DHT22;412;51.400;7.480;2023-05-10T09:45:48;19.00;99.90
851;DHT22;412;51.400;7.480;2023-05-10T09:48:16;18.90;99.90
851;DHT22;412;51.400;7.480;2023-05-10T09:50:42;19.00;99.90
851;DHT22;412;51.400;7.480;2023-05-10T09:53:08;19.20;99.90
851;DHT22;412;51.400;7.480;2023-05-10T09:55:42;19.30;99.90
851;DHT22;412;51.400;7.480;2023-05-10T09:58:10;19.50;99.90
851;DHT22;412;51.400;7.480;2023-05-10T10:00:38;19.70;99.90
851;DHT22;412;51.400;7.480;2023-05-10T10:03:04;19.80;99.90
851;DHT22;412;51.400;7.480;2023-05-10T10:05:32;19.90;99.90
851;DHT22;412;51.400;7.480;2023-05-10T10:07:58;20.10;99.90
851;DHT22;412;51.400;7.480;2023-05-10T10:10:25;20.10;99.90
851;DHT22;412;51.400;7.480;2023-05-10T10:12:51;20.30;99.90
851;DHT22;412;51.400;7.480;2023-05-10T10:15:18;20.40;99.90
851;DHT22;412;51.400;7.480;2023-05-10T10:17:44;20.30;99.90
851;DHT22;412;51.400;7.480;2023-05-10T10:20:11;20.20;99.90
851;DHT22;412;51.400;7.480;2023-05-10T10:22:37;20.10;99.90
851;DHT22;412;51.400;7.480;2023-05-10T10:25:04;19.90;99.90
851;DHT22;412;51.400;7.480;2023-05-10T10:30:43;19.70;99.90
851;DHT22;412;51.400;7.480;2023-05-10T10:35:49;19.40;99.90
851;DHT22;412;51.400;7.480;2023-05-10T10:38:16;19.30;99.90
851;DHT22;412;51.400;7.480;2023-05-10T10:40:42;19.20;99.90
851;DHT22;412;51.400;7.480;2023-05-10T10:43:23;19.30;99.90
851;DHT22;412;51.400;7.480;2023-05-10T10:46:14;19.40;99.90
851;DHT22;412;51.400;7.480;2023-05-10T10:49:10;19.50;99.90
851;DHT22;412;51.400;7.480;2023-05-10T10:51:39;19.60;99.90
851;DHT22;412;51.400;7.480;2023-05-10T10:54:09;19.70;99.90
851;DHT22;412;51.400;7.480;2023-05-10T10:56:35;19.70;99.90
851;DHT22;412;51.400;7.480;2023-05-10T10:59:01;19.60;99.90
851;DHT22;412;51.400;7.480;2023-05-10T11:01:35;19.50;99.90
851;DHT22;412;51.400;7.480;2023-05-10T11:06:36;19.10;99.90
851;DHT22;412;51.400;7.480;2023-05-10T11:09:10;18.90;99.90
851;DHT22;412;51.400;7.480;2023-05-10T11:11:48;18.70;99.90
851;DHT22;412;51.400;7.480;2023-05-10T11:14:20;18.70;99.90
851;DHT22;412;51.400;7.480;2023-05-10T11:16:46;18.60;99.90
851;DHT22;412;51.400;7.480;2023-05-10T11:19:14;18.40;99.90
851;DHT22;412;51.400;7.480;2023-05-10T11:24:30;18.40;99.90
851;DHT22;412;51.400;7.480;2023-05-10T11:26:56;18.40;99.90
851;DHT22;412;51.400;7.480;2023-05-10T11:29:22;18.40;99.90
851;DHT22;412;51.400;7.480;2023-05-10T11:31:49;18.40;99.90
851;DHT22;412;51.400;7.480;2023-05-10T11:34:29;18.40;99.90
851;DHT22;412;51.400;7.480;2023-05-10T11:36:56;18.50;99.90
851;DHT22;412;51.400;7.480;2023-05-10T11:39:32;18.60;99.90
851;DHT22;412;51.400;7.480;2023-05-10T11:41:59;18.70;99.90
851;DHT22;412;51.400;7.480;2023-05-10T11:44:32;18.80;99.90
851;DHT22;412;51.400;7.480;2023-05-10T11:46:59;18.80;99.90
851;DHT22;412;51.400;7.480;2023-05-10T11:49:26;19.00;99.90
851;DHT22;412;51.400;7.480;2023-05-10T11:51:51;19.10;99.90
851;DHT22;412;51.400;7.480;2023-05-10T11:54:17;19.20;99.90
851;DHT22;412;51.400;7.480;2023-05-10T11:56:43;19.30;99.90
851;DHT22;412;51.400;7.480;2023-05-10T11:59:10;19.20;99.90
851;DHT22;412;51.400;7.480;2023-05-10T12:01:36;19.20;99.90
851;DHT22;412;51.400;7.480;2023-05-10T12:04:02;19.20;99.90
851;DHT22;412;51.400;7.480;2023-05-10T12:06:30;19.20;99.90
851;DHT22;412;51.400;7.480;2023-05-10T12:08:56;19.10;99.90
851;DHT22;412;51.400;7.480;2023-05-10T12:11:27;19.00;99.90
851;DHT22;412;51.400;7.480;2023-05-10T12:13:54;18.90;99.90
851;DHT22;412;51.400;7.480;2023-05-10T12:16:23;18.90;99.90
851;DHT22;412;51.400;7.480;2023-05-10T12:18:50;18.90;99.90
851;DHT22;412;51.400;7.480;2023-05-10T12:21:20;18.90;99.90
851;DHT22;412;51.400;7.480;2023-05-10T12:23:48;18.90;99.90
851;DHT22;412;51.400;7.480;2023-05-10T12:26:14;18.90;99.90
851;DHT22;412;51.400;7.480;2023-05-10T12:28:40;18.80;99.90
851;DHT22;412;51.400;7.480;2023-05-10T12:31:07;18.90;99.90
851;DHT22;412;51.400;7.480;2023-05-10T12:33:44;19.00;99.90
851;DHT22;412;51.400;7.480;2023-05-10T12:36:12;19.00;99.90
851;DHT22;412;51.400;7.480;2023-05-10T12:38:40;19.10;99.90
851;DHT22;412;51.400;7.480;2023-05-10T12:41:12;19.20;99.90
851;DHT22;412;51.400;7.480;2023-05-10T12:43:39;19.30;99.90
851;DHT22;412;51.400;7.480;2023-05-10T12:46:10;19.30;99.90
851;DHT22;412;51.400;7.480;2023-05-10T12:48:37;19.30;99.90
851;DHT22;412;51.400;7.480;2023-05-10T12:51:04;19.30;99.90
851;DHT22;412;51.400;7.480;2023-05-10T12:53:30;19.30;99.90
851;DHT22;412;51.400;7.480;2023-05-10T12:55:57;19.30;99.90
851;DHT22;412;51.400;7.480;2023-05-10T12:58:22;19.30;99.90
851;DHT22;412;51.400;7.480;2023-05-10T13:00:48;19.30;99.90
851;DHT22;412;51.400;7.480;2023-05-10T13:03:14;19.30;99.90
851;DHT22;412;51.400;7.480;2023-05-10T13:05:41;19.30;99.90
851;DHT22;412;51.400;7.480;2023-05-10T13:08:07;19.30;99.90
851;DHT22;412;51.400;7.480;2023-05-10T13:10:33;19.30;99.90
851;DHT22;412;51.400;7.480;2023-05-10T13:12:59;19.30;99.90
851;DHT22;412;51.400;7.480;2023-05-10T13:15:25;19.20;99.90
851;DHT22;412;51.400;7.480;2023-05-10T13:17:52;19.30;99.90
851;DHT22;412;51.400;7.480;2023-05-10T13:20:18;19.30;99.90
851;DHT22;412;51.400;7.480;2023-05-10T13:22:45;19.40;99.90
851;DHT22;412;51.400;7.480;2023-05-10T13:25:12;19.40;99.90
851;DHT22;412;51.400;7.480;2023-05-10T13:27:39;19.50;99.90
851;DHT22;412;51.400;7.480;2023-05-10T13:30:09;19.60;99.90
851;DHT22;412;51.400;7.480;2023-05-10T13:32:35;19.70;99.90
851;DHT22;412;51.400;7.480;2023-05-10T13:35:01;19.70;99.90
851;DHT22;412;51.400;7.480;2023-05-10T13:37:29;19.70;99.90
851;DHT22;412;51.400;7.480;2023-05-10T13:39:55;19.70;99.90
851;DHT22;412;51.400;7.480;2023-05-10T13:42:22;19.80;99.90
851;DHT22;412;51.400;7.480;2023-05-10T13:44:49;19.90;99.90
851;DHT22;412;51.400;7.480;2023-05-10T13:47:15;20.00;99.90
851;DHT22;412;51.400;7.480;2023-05-10T13:49:41;20.10;99.90
851;DHT22;412;51.400;7.480;2023-05-10T13:52:07;20.00;99.90
851;DHT22;412;51.400;7.480;2023-05-10T13:54:33;20.00;99.90
851;DHT22;412;51.400;7.480;2023-05-10T13:56:59;20.00;99.90
851;DHT22;412;51.400;7.480;2023-05-10T13:59:25;19.90;99.90
851;DHT22;412;51.400;7.480;2023-05-10T14:01:51;19.90;99.90
851;DHT22;412;51.400;7.480;2023-05-10T14:04:17;19.80;99.90
851;DHT22;412;51.400;7.480;2023-05-10T14:06:43;19.80;99.90
851;DHT22;412;51.400;7.480;2023-05-10T14:09:08;19.70;99.90
851;DHT22;412;51.400;7.480;2023-05-10T14:11:35;19.60;99.90
851;DHT22;412;51.400;7.480;2023-05-10T14:14:01;19.50;99.90
851;DHT22;412;51.400;7.480;2023-05-10T14:16:26;19.50;99.90
851;DHT22;412;51.400;7.480;2023-05-10T14:18:52;19.50;99.90
851;DHT22;412;51.400;7.480;2023-05-10T14:21:18;19.50;99.90
851;DHT22;412;51.400;7.480;2023-05-10T14:23:44;19.50;99.90
851;DHT22;412;51.400;7.480;2023-05-10T14:26:10;19.50;99.90
851;DHT22;412;51.400;7.480;2023-05-10T14:28:36;19.50;99.90
851;DHT22;412;51.400;7.480;2023-05-10T14:31:01;19.50;99.90
851;DHT22;412;51.400;7.480;2023-05-10T14:33:27;19.60;99.90
851;DHT22;412;51.400;7.480;2023-05-10T14:35:54;19.60;99.90
851;DHT22;412;51.400;7.480;2023-05-10T14:38:22;19.60;99.90
851;DHT22;412;51.400;7.480;2023-05-10T14:40:48;19.70;99.90
851;DHT22;412;51.400;7.480;2023-05-10T14:43:14;19.90;99.90
851;DHT22;412;51.400;7.480;2023-05-10T14:45:39;20.00;99.90
851;DHT22;412;51.400;7.480;2023-05-10T14:48:05;20.20;99.90
851;DHT22;412;51.400;7.480;2023-05-10T14:50:31;20.30;99.90
851;DHT22;412;51.400;7.480;2023-05-10T14:52:57;20.50;99.90
851;DHT22;412;51.400;7.480;2023-05-10T14:55:24;20.50;98.40
851;DHT22;412;51.400;7.480;2023-05-10T14:57:50;20.60;99.80
851;DHT22;412;51.400;7.480;2023-05-10T15:00:16;20.50;99.90
851;DHT22;412;51.400;7.480;2023-05-10T15:02:44;20.50;99.80
851;DHT22;412;51.400;7.480;2023-05-10T15:05:09;20.50;98.90
851;DHT22;412;51.400;7.480;2023-05-10T15:07:35;20.50;97.50
851;DHT22;412;51.400;7.480;2023-05-10T15:10:01;20.60;97.90
851;DHT22;412;51.400;7.480;2023-05-10T15:12:27;20.50;99.20
851;DHT22;412;51.400;7.480;2023-05-10T15:14:53;20.50;99.90
851;DHT22;412;51.400;7.480;2023-05-10T15:17:19;20.50;99.90
851;DHT22;412;51.400;7.480;2023-05-10T15:19:47;20.60;99.90
851;DHT22;412;51.400;7.480;2023-05-10T15:22:15;20.50;99.50
851;DHT22;412;51.400;7.480;2023-05-10T15:24:40;20.60;99.90
851;DHT22;412;51.400;7.480;2023-05-10T15:27:06;20.60;99.90
851;DHT22;412;51.400;7.480;2023-05-10T15:29:32;20.40;99.10
851;DHT22;412;51.400;7.480;2023-05-10T15:32:01;20.20;99.90
851;DHT22;412;51.400;7.480;2023-05-10T15:34:27;20.30;99.90
851;DHT22;412;51.400;7.480;2023-05-10T15:36:53;20.30;99.90
851;DHT22;412;51.400;7.480;2023-05-10T15:39:20;20.20;99.90
851;DHT22;412;51.400;7.480;2023-05-10T15:41:45;20.10;99.90
851;DHT22;412;51.400;7.480;2023-05-10T15:44:12;20.10;99.90
851;DHT22;412;51.400;7.480;2023-05-10T15:46:38;20.20;99.90
851;DHT22;412;51.400;7.480;2023-05-10T15:49:04;20.30;99.90
851;DHT22;412;51.400;7.480;2023-05-10T15:51:31;20.40;99.90
851;DHT22;412;51.400;7.480;2023-05-10T15:53:58;20.30;99.90
851;DHT22;412;51.400;7.480;2023-05-10T15:56:24;20.40;99.90
851;DHT22;412;51.400;7.480;2023-05-10T15:58:51;20.30;99.90
851;DHT22;412;51.400;7.480;2023-05-10T16:01:16;20.40;99.90
851;DHT22;412;51.400;7.480;2023-05-10T16:03:42;20.30;99.90
851;DHT22;412;51.400;7.480;2023-05-10T16:06:08;20.30;99.90
851;DHT22;412;51.400;7.480;2023-05-10T16:08:34;20.20;99.90
851;DHT22;412;51.400;7.480;2023-05-10T16:11:02;20.20;99.90
851;DHT22;412;51.400;7.480;2023-05-10T16:13:28;20.20;99.90
851;DHT22;412;51.400;7.480;2023-05-10T16:15:54;20.10;99.90
851;DHT22;412;51.400;7.480;2023-05-10T16:18:22;20.10;99.90
851;DHT22;412;51.400;7.480;2023-05-10T16:20:47;20.10;99.90
851;DHT22;412;51.400;7.480;2023-05-10T16:23:13;20.10;99.90
851;DHT22;412;51.400;7.480;2023-05-10T16:25:39;20.10;99.90
851;DHT22;412;51.400;7.480;2023-05-10T16:28:05;20.10;99.90
851;DHT22;412;51.400;7.480;2023-05-10T16:30:31;20.10;99.90
851;DHT22;412;51.400;7.480;2023-05-10T16:32:57;20.10;99.90
851;DHT22;412;51.400;7.480;2023-05-10T16:35:23;20.10;99.90
851;DHT22;412;51.400;7.480;2023-05-10T16:37:49;20.10;99.90
851;DHT22;412;51.400;7.480;2023-05-10T16:40:15;20.20;99.90
851;DHT22;412;51.400;7.480;2023-05-10T16:42:41;20.20;99.90
851;DHT22;412;51.400;7.480;2023-05-10T16:45:07;20.20;99.90
851;DHT22;412;51.400;7.480;2023-05-10T16:47:34;20.20;99.90
851;DHT22;412;51.400;7.480;2023-05-10T16:50:01;20.20;99.90
851;DHT22;412;51.400;7.480;2023-05-10T16:52:27;20.20;99.90
851;DHT22;412;51.400;7.480;2023-05-10T16:54:54;20.20;99.90
851;DHT22;412;51.400;7.480;2023-05-10T16:57:20;20.10;99.90
851;DHT22;412;51.400;7.480;2023-05-10T16:59:46;20.10;99.90